createdAt,value
2022-07-29T00:01:38.725Z,100312.72
2022-07-29T00:04:07.010Z,100304.59
2022-07-29T00:06:34.996Z,100308.63
2022-07-29T00:09:02.921Z,100309.44
2022-07-29T00:11:31.230Z,100311.59
2022-07-29T00:13:59.100Z,100302.94
2022-07-29T00:16:27.115Z,100298.88
2022-07-29T00:18:55.383Z,100298.28
2022-07-29T00:21:23.217Z,100293.41
2022-07-29T00:23:51.133Z,100285.03
2022-07-29T00:26:19.376Z,100296.88
2022-07-29T00:28:47.212Z,100292.56
2022-07-29T00:31:16.272Z,100294.75
2022-07-29T00:33:44.592Z,100289.34
2022-07-29T00:36:12.522Z,100290.72
2022-07-29T00:38:42.642Z,100274.25
2022-07-29T00:41:11.084Z,100278.84
2022-07-29T00:43:39.047Z,100279.06
2022-07-29T00:46:06.955Z,100278.00
2022-07-29T00:48:35.176Z,100275.00
2022-07-29T00:51:05.460Z,100275.22
2022-07-29T00:53:33.639Z,100274.69
2022-07-29T00:56:01.901Z,100273.56
2022-07-29T00:58:29.819Z,100276.03
2022-07-29T01:00:59.256Z,100272.19
2022-07-29T01:03:27.427Z,100269.69
2022-07-29T01:05:55.926Z,100274.84
2022-07-29T01:08:24.919Z,100273.75
2022-07-29T01:10:54.246Z,100274.53
2022-07-29T01:13:23.487Z,100271.31
2022-07-29T01:15:58.022Z,100266.47
2022-07-29T01:18:35.052Z,100267.81
2022-07-29T01:21:45.981Z,100271.88
2022-07-29T01:24:51.527Z,100279.72
2022-07-29T01:27:38.174Z,100274.87
2022-07-29T01:30:08.506Z,100287.66
2022-07-29T01:32:40.538Z,100282.28
2022-07-29T01:35:11.257Z,100291.66
2022-07-29T01:37:58.955Z,100301.37
2022-07-29T01:40:41.889Z,100295.13
2022-07-29T01:43:19.905Z,100295.34
2022-07-29T01:46:04.255Z,100292.88
2022-07-29T01:49:02.196Z,100270.31
2022-07-29T01:51:36.748Z,100292.66
2022-07-29T01:54:27.701Z,100299.69
2022-07-29T01:56:59.822Z,100298.09
2022-07-29T01:59:30.032Z,100296.16
2022-07-29T02:02:00.657Z,100291.81
2022-07-29T02:04:30.608Z,100289.44
2022-07-29T02:07:04.685Z,100290.28
2022-07-29T02:09:35.859Z,100291.81
2022-07-29T02:12:05.261Z,100289.94
2022-07-29T02:14:37.470Z,100281.88
2022-07-29T02:17:05.876Z,100282.66
2022-07-29T02:19:35.217Z,100281.22
2022-07-29T02:22:03.857Z,100286.69
2022-07-29T02:24:32.315Z,100288.16
2022-07-29T02:27:02.037Z,100278.22
2022-07-29T02:29:32.999Z,100274.75
2022-07-29T02:32:04.040Z,100287.63
2022-07-29T02:34:34.351Z,100280.63
2022-07-29T02:37:04.766Z,100276.78
2022-07-29T02:39:35.473Z,100277.37
2022-07-29T02:42:08.239Z,100276.31
2022-07-29T02:44:37.063Z,100271.41
2022-07-29T02:47:23.170Z,100257.34
2022-07-29T02:50:09.481Z,100265.19
2022-07-29T02:53:10.087Z,100269.25
2022-07-29T02:55:47.477Z,100265.81
2022-07-29T02:58:29.431Z,100275.81
2022-07-29T03:01:04.530Z,100271.53
2022-07-29T03:03:38.453Z,100270.47
2022-07-29T03:06:08.544Z,100282.88
2022-07-29T03:08:57.703Z,100283.09
2022-07-29T03:11:41.442Z,100279.38
2022-07-29T03:14:15.683Z,100280.19
2022-07-29T03:16:44.092Z,100279.91
2022-07-29T03:19:12.344Z,100275.91
2022-07-29T03:21:40.682Z,100282.41
2022-07-29T03:24:10.867Z,100277.06
2022-07-29T03:26:40.985Z,100278.47
2022-07-29T03:29:09.243Z,100287.66
2022-07-29T03:31:41.867Z,100289.81
2022-07-29T03:34:11.561Z,100284.34
2022-07-29T03:36:39.481Z,100294.00
2022-07-29T03:39:11.085Z,100287.78
2022-07-29T03:41:40.170Z,100288.06
2022-07-29T03:44:09.684Z,100287.22
2022-07-29T03:46:40.075Z,100293.22
2022-07-29T03:49:09.633Z,100296.19
2022-07-29T03:51:37.902Z,100290.47
2022-07-29T03:54:10.113Z,100289.44
2022-07-29T03:56:49.038Z,100297.56
2022-07-29T03:59:20.522Z,100303.25
2022-07-29T04:01:50.113Z,100293.03
2022-07-29T04:04:18.859Z,100297.22
2022-07-29T04:06:48.283Z,100301.87
2022-07-29T04:09:16.367Z,100303.31
2022-07-29T04:12:02.072Z,100306.66
2022-07-29T04:14:33.784Z,100308.34
2022-07-29T04:17:03.235Z,100309.84
2022-07-29T04:19:31.805Z,100315.63
2022-07-29T04:22:01.030Z,100311.13
2022-07-29T04:24:29.534Z,100308.22
2022-07-29T04:26:57.410Z,100311.03
2022-07-29T04:29:25.284Z,100309.00
2022-07-29T04:31:53.719Z,100304.47
2022-07-29T04:34:21.656Z,100307.72
2022-07-29T04:36:49.560Z,100302.28
2022-07-29T04:39:22.758Z,100297.19
2022-07-29T04:41:52.394Z,100306.62
2022-07-29T04:44:26.530Z,100305.16
2022-07-29T04:46:58.219Z,100304.03
2022-07-29T04:49:26.733Z,100305.66
2022-07-29T04:51:55.101Z,100306.13
2022-07-29T04:54:23.327Z,100305.37
2022-07-29T04:56:51.773Z,100310.22
2022-07-29T04:59:19.825Z,100310.97
2022-07-29T05:01:47.818Z,100309.69
2022-07-29T05:04:16.375Z,100309.88
2022-07-29T05:06:44.609Z,100309.19
2022-07-29T05:09:12.473Z,100318.47
2022-07-29T05:11:40.799Z,100304.97
2022-07-29T05:14:08.776Z,100322.09
2022-07-29T09:02:40.288Z,100303.91
2022-07-29T09:05:10.766Z,100325.19
2022-07-29T09:07:40.847Z,100316.62
2022-07-29T09:10:10.009Z,100305.94
2022-07-29T09:12:39.003Z,100309.19
2022-07-29T09:15:09.388Z,100315.72
2022-07-29T09:17:47.882Z,100316.31
2022-07-29T09:20:21.427Z,100298.50
2022-07-29T09:22:51.936Z,100309.41
2022-07-29T09:25:37.078Z,100283.75
2022-07-29T09:28:18.832Z,100298.34
2022-07-29T09:30:55.312Z,100309.47
2022-07-29T09:33:34.452Z,100289.19
2022-07-29T09:36:07.597Z,100292.44
2022-07-29T09:38:38.622Z,100287.16
2022-07-29T09:41:09.135Z,100290.44
2022-07-29T09:43:38.805Z,100278.88
2022-07-29T09:46:16.994Z,100286.78
2022-07-29T09:48:45.452Z,100279.12
2022-07-29T09:51:25.554Z,100285.84
2022-07-29T09:53:57.341Z,100283.09
2022-07-29T09:56:42.786Z,100290.72
2022-07-29T09:59:14.348Z,100283.31
2022-07-29T10:01:43.033Z,100277.66
2022-07-29T10:04:12.966Z,100265.34
2022-07-29T10:07:09.781Z,100286.53
2022-07-29T10:09:40.663Z,100274.25
2022-07-29T10:12:17.448Z,100271.75
2022-07-29T10:14:46.677Z,100277.34
2022-07-29T10:17:16.714Z,100275.81
2022-07-29T10:19:45.715Z,100273.97
2022-07-29T10:22:15.043Z,100268.88
2022-07-29T10:24:43.003Z,100273.81
2022-07-29T10:27:10.983Z,100273.91
2022-07-29T10:29:39.339Z,100251.75
2022-07-29T10:32:31.884Z,100264.16
2022-07-29T10:35:09.929Z,100266.25
2022-07-29T10:38:24.793Z,100259.84
2022-07-29T10:41:21.281Z,100253.03
2022-07-29T10:43:53.265Z,100254.34
2022-07-29T10:46:23.740Z,100254.88
2022-07-29T10:49:24.729Z,100254.00
2022-07-29T10:51:58.360Z,100247.44
2022-07-29T10:54:52.486Z,100250.69
2022-07-29T10:57:54.210Z,100244.84
2022-07-29T11:00:31.681Z,100239.66
2022-07-29T11:03:01.301Z,100231.84
2022-07-29T11:05:53.488Z,100229.22
2022-07-29T11:08:29.081Z,100228.50
2022-07-29T11:11:22.191Z,100222.69
2022-07-29T11:13:53.275Z,100224.53
2022-07-29T11:16:25.302Z,100213.53
2022-07-29T11:19:21.612Z,100220.28
2022-07-29T11:21:58.910Z,100207.34
2022-07-29T11:24:32.482Z,100214.41
2022-07-29T11:27:13.520Z,100197.69
2022-07-29T11:29:54.430Z,100197.44
2022-07-29T11:35:37.047Z,100190.53
2022-07-29T11:38:28.893Z,100189.13
2022-07-29T11:41:25.565Z,100194.13
2022-07-29T11:43:56.998Z,100193.44
2022-07-29T11:46:49.970Z,100187.00
2022-07-29T11:49:31.933Z,100197.13
2022-07-29T11:52:22.855Z,100183.75
2022-07-29T11:55:00.547Z,100190.31
2022-07-29T11:57:36.171Z,100189.31
2022-07-29T12:00:12.614Z,100190.94
2022-07-29T12:02:48.136Z,100187.91
2022-07-29T12:05:35.975Z,100188.72
2022-07-29T12:07:01.471Z,100194.03
2022-07-29T12:08:20.291Z,100179.37
2022-07-29T12:10:52.943Z,100175.53
2022-07-29T12:13:22.187Z,100170.28
2022-07-29T12:16:00.022Z,100171.00
2022-07-29T12:18:29.425Z,100166.84
2022-07-29T12:21:06.821Z,100171.56
2022-07-29T12:23:37.565Z,100176.88
2022-07-29T12:26:11.008Z,100167.72
2022-07-29T12:28:53.504Z,100165.66
2022-07-29T12:31:43.847Z,100161.44
2022-07-29T12:34:16.877Z,100156.94
2022-07-29T12:36:45.661Z,100155.81
2022-07-29T12:39:14.912Z,100139.78
2022-07-29T12:41:45.372Z,100142.88
2022-07-29T12:44:14.449Z,100139.66
2022-07-29T12:46:42.338Z,100136.47
2022-07-29T12:49:10.499Z,100136.09
2022-07-29T12:51:41.619Z,100134.72
2022-07-29T12:54:16.333Z,100138.28
2022-07-29T12:56:46.108Z,100130.97
2022-07-29T12:59:15.705Z,100124.22
2022-07-29T13:01:45.684Z,100119.84
2022-07-29T13:04:26.567Z,100123.91
2022-07-29T13:07:07.498Z,100116.56
2022-07-29T13:09:39.379Z,100122.41
2022-07-29T13:12:11.198Z,100120.28
2022-07-29T13:14:46.024Z,100118.59
2022-07-29T13:17:24.265Z,100116.88
2022-07-29T13:20:06.116Z,100076.94
2022-07-29T13:22:37.451Z,100098.22
2022-07-29T13:25:08.974Z,100104.97
2022-07-29T13:27:39.657Z,100091.41
2022-07-29T13:30:10.453Z,100096.41
2022-07-29T13:32:38.787Z,100093.19
2022-07-29T13:35:09.098Z,100093.19
2022-07-29T13:37:39.619Z,100091.47
2022-07-29T13:40:11.938Z,100085.59
2022-07-29T13:42:40.351Z,100076.56
2022-07-29T13:45:09.532Z,100074.31
2022-07-29T13:47:37.938Z,100072.81
2022-07-29T13:50:08.240Z,100069.47
2022-07-29T13:52:36.475Z,100066.59
2022-07-29T13:55:05.327Z,100071.41
2022-07-29T13:57:33.653Z,100068.97
2022-07-29T14:00:01.566Z,100071.06
2022-07-29T14:02:36.315Z,100061.25
2022-07-29T14:05:08.398Z,100061.09
2022-07-29T14:07:38.055Z,100051.28
2022-07-29T14:10:07.096Z,100061.00
2022-07-29T14:12:35.196Z,100051.13
2022-07-29T14:15:03.601Z,100046.66
2022-07-29T14:17:31.955Z,100051.72
2022-07-29T14:20:00.552Z,100048.16
2022-07-29T14:22:28.539Z,100049.53
2022-07-29T14:24:56.754Z,100049.53
2022-07-29T14:27:36.904Z,100046.56
2022-07-29T14:30:07.581Z,100037.69
2022-07-29T14:32:35.478Z,100033.22
2022-07-29T14:35:03.735Z,100039.59
2022-07-29T14:37:39.786Z,100036.16
2022-07-29T14:40:10.421Z,100036.97
2022-07-29T14:42:39.136Z,100031.72
2022-07-29T14:45:09.087Z,100025.44
2022-07-29T14:47:38.318Z,100016.63
2022-07-29T14:50:07.423Z,100026.91
2022-07-29T14:52:36.467Z,100029.59
2022-07-29T14:55:05.335Z,100023.25
2022-07-29T14:57:44.649Z,100018.09
2022-07-29T15:00:12.907Z,100018.47
2022-07-29T15:03:00.925Z,100015.22
2022-07-29T15:05:29.374Z,100011.69
2022-07-29T15:07:57.391Z,100023.94
2022-07-29T15:10:27.227Z,100022.00
2022-07-29T15:12:56.363Z,100008.75
2022-07-29T15:15:24.539Z,100014.38
2022-07-29T15:17:52.496Z,100023.06
2022-07-29T15:20:20.764Z,100011.50
2022-07-29T15:22:48.744Z,100014.00
2022-07-29T15:25:16.634Z,100015.59
2022-07-29T15:27:48.965Z,100012.75
2022-07-29T15:30:32.478Z,100013.19
2022-07-29T15:33:05.350Z,100012.84
2022-07-29T15:35:40.579Z,100011.91
2022-07-29T15:38:09.306Z,100007.09
2022-07-29T15:40:39.594Z,99998.78
2022-07-29T15:43:07.890Z,99993.16
2022-07-29T15:45:41.313Z,99994.09
2022-07-29T15:48:10.380Z,99996.50
2022-07-29T15:50:43.202Z,99997.16
2022-07-29T15:53:15.389Z,99989.47
2022-07-29T15:55:44.508Z,99988.09
2022-07-29T15:58:12.676Z,99987.84
2022-07-29T16:00:40.666Z,99987.06
2022-07-29T16:03:08.963Z,99975.41
2022-07-29T16:05:37.302Z,99983.97
2022-07-29T16:08:05.813Z,99974.50
2022-07-29T16:10:34.360Z,99977.34
2022-07-29T16:13:02.378Z,99976.97
2022-07-29T16:15:30.346Z,99974.81
2022-07-29T16:17:58.639Z,99975.63
2022-07-29T16:20:26.716Z,99968.06
2022-07-29T16:22:55.290Z,99967.84
2022-07-29T16:25:38.406Z,99962.00
2022-07-29T16:28:11.542Z,99956.81
2022-07-29T16:30:39.760Z,99963.81
2022-07-29T16:33:08.510Z,99963.50
2022-07-29T16:35:40.152Z,99965.19
2022-07-29T16:38:08.693Z,99964.38
2022-07-29T16:40:37.014Z,99962.69
2022-07-29T16:43:04.928Z,99954.94
2022-07-29T16:45:45.113Z,99962.69
2022-07-29T16:48:15.326Z,99955.13
2022-07-29T16:50:46.581Z,99951.44
2022-07-29T16:53:14.463Z,99945.13
2022-07-29T16:55:42.764Z,99949.78
2022-07-29T16:58:11.458Z,99950.03
2022-07-29T17:00:42.138Z,99955.63
2022-07-29T17:03:10.382Z,99943.75
2022-07-29T17:05:52.315Z,99947.63
2022-07-29T17:08:23.008Z,99946.31
2022-07-29T17:10:51.339Z,99937.16
2022-07-29T17:13:19.629Z,99938.16
2022-07-29T17:15:48.059Z,99936.28
2022-07-29T17:18:16.031Z,99942.28
2022-07-29T17:20:44.078Z,99939.25
2022-07-29T17:23:12.360Z,99938.66
2022-07-29T17:25:43.707Z,99943.50
2022-07-29T17:28:11.624Z,99940.50
2022-07-29T17:30:39.871Z,99944.19
2022-07-29T17:33:09.012Z,99943.91
2022-07-29T17:35:55.354Z,99944.00
2022-07-29T17:38:23.539Z,99944.53
2022-07-29T17:40:51.606Z,99944.44
2022-07-29T17:43:19.532Z,99946.03
2022-07-29T17:45:50.083Z,99953.97
2022-07-29T17:48:19.617Z,99954.16
2022-07-29T17:50:49.051Z,99958.38
2022-07-29T17:53:17.411Z,99961.75
2022-07-29T17:55:51.228Z,99958.75
2022-07-29T17:58:19.628Z,99967.31
2022-07-29T18:00:48.321Z,99968.44
2022-07-29T18:03:16.735Z,99968.28
2022-07-29T18:05:45.150Z,99959.16
2022-07-29T18:08:13.228Z,99972.47
2022-07-29T18:10:41.750Z,99967.66
2022-07-29T18:13:11.664Z,99960.91
2022-07-29T18:15:40.595Z,99976.31
2022-07-29T18:18:09.227Z,99976.31
2022-07-29T18:20:37.781Z,99980.31
2022-07-29T18:23:06.109Z,99973.03
2022-07-29T18:25:34.556Z,99985.87
2022-07-29T18:28:02.468Z,99981.34
2022-07-29T18:30:31.226Z,99990.47
2022-07-29T18:33:20.228Z,99982.91
2022-07-29T18:35:49.596Z,99978.84
2022-07-29T18:38:18.436Z,99977.69
2022-07-29T18:40:46.508Z,99985.31
2022-07-29T18:43:14.685Z,99992.53
2022-07-29T18:45:43.031Z,99991.56
2022-07-29T18:48:12.741Z,99980.13
2022-07-29T18:50:41.914Z,99984.56
2022-07-29T18:53:10.356Z,99992.56
2022-07-29T18:55:38.370Z,99997.75
2022-07-29T18:58:06.553Z,99993.06
2022-07-29T19:00:35.464Z,100004.09
2022-07-29T19:03:03.696Z,100005.69
2022-07-29T19:05:32.397Z,100003.41
2022-07-29T19:08:00.835Z,100007.69
2022-07-29T19:10:29.037Z,100005.78
2022-07-29T19:12:58.131Z,100010.41
2022-07-29T19:15:26.815Z,100010.88
2022-07-29T19:17:59.015Z,100014.50
2022-07-29T19:20:29.569Z,100015.88
2022-07-29T19:22:57.614Z,99998.50
2022-07-29T19:25:25.916Z,100009.09
2022-07-29T19:27:54.323Z,100012.22
2022-07-29T19:30:22.454Z,100011.66
2022-07-29T19:32:50.678Z,100009.16
2022-07-29T19:35:28.464Z,99998.84
2022-07-29T19:37:58.432Z,100016.25
2022-07-29T19:40:27.921Z,100012.25
2022-07-29T19:42:56.605Z,100014.25
2022-07-29T19:45:26.149Z,100010.19
2022-07-29T19:48:00.752Z,100009.00
2022-07-29T19:50:30.273Z,100009.13
2022-07-29T19:52:59.512Z,100010.97
2022-07-29T19:55:28.227Z,100017.59
2022-07-29T19:57:56.630Z,100001.50
2022-07-29T20:00:26.047Z,100016.72
2022-07-29T20:02:54.464Z,100005.12
2022-07-29T20:05:27.837Z,100007.94
2022-07-29T20:07:57.162Z,100004.25
2022-07-29T20:10:25.352Z,100004.03
2022-07-29T20:12:55.025Z,99998.91
2022-07-29T20:15:23.876Z,100004.13
2022-07-29T20:17:56.935Z,100005.53
2022-07-29T20:20:25.879Z,99999.34
2022-07-29T20:22:54.340Z,99989.38
2022-07-29T20:25:23.380Z,100000.03
2022-07-29T20:27:52.647Z,100000.94
2022-07-29T20:30:22.312Z,100008.78
2022-07-29T20:32:50.724Z,100004.25
2022-07-29T20:35:20.230Z,99996.09
2022-07-29T20:37:52.034Z,99997.50
2022-07-29T20:40:25.934Z,99998.63
2022-07-29T20:42:54.513Z,99997.59
2022-07-29T20:45:23.765Z,100003.53
2022-07-29T20:47:52.871Z,100002.13
2022-07-29T20:50:24.261Z,100004.25
2022-07-29T20:52:53.437Z,100000.63
2022-07-29T20:55:21.847Z,100007.59
2022-07-29T20:57:55.433Z,100009.00
2022-07-29T21:00:23.701Z,100016.34
2022-07-29T21:02:51.847Z,100017.75
2022-07-29T21:05:19.889Z,100024.19
2022-07-29T21:07:48.088Z,100021.47
2022-07-29T21:10:18.340Z,100019.34
2022-07-29T21:12:46.867Z,100024.06
2022-07-29T21:15:15.349Z,100021.44
2022-07-29T21:17:49.143Z,100019.63
2022-07-29T21:20:19.078Z,100030.25
2022-07-29T21:22:47.064Z,100028.66
2022-07-29T21:25:15.169Z,100035.81
2022-07-29T21:28:02.169Z,100037.06
2022-07-29T21:30:30.043Z,100042.06
2022-07-29T21:32:58.846Z,100046.78
2022-07-29T21:36:01.690Z,100054.50
2022-07-29T21:38:16.536Z,100062.00
2022-07-29T21:40:48.739Z,100057.87
2022-07-29T21:43:17.786Z,100062.00
2022-07-29T21:45:52.282Z,100059.16
2022-07-29T21:48:21.651Z,100052.81
2022-07-29T21:50:51.059Z,100048.38
2022-07-29T21:53:20.826Z,100057.37
2022-07-29T21:55:51.581Z,100057.22
2022-07-29T21:58:22.221Z,100059.53
2022-07-29T22:00:50.333Z,100068.75
2022-07-29T22:03:18.555Z,100067.19
2022-07-29T22:05:46.613Z,100062.31
2022-07-29T22:08:14.757Z,100067.03
2022-07-29T22:10:43.198Z,100075.44
2022-07-29T22:13:11.447Z,100069.31
2022-07-29T22:15:41.188Z,100072.28
2022-07-29T22:18:12.476Z,100067.44
2022-07-29T22:20:47.391Z,100062.59
2022-07-29T22:23:15.746Z,100068.88
2022-07-29T22:25:43.627Z,100067.03
2022-07-29T22:28:11.566Z,100060.00
2022-07-29T22:30:39.861Z,100057.81
2022-07-29T22:33:07.770Z,100052.41
2022-07-29T22:35:35.817Z,100056.44
2022-07-29T22:38:04.053Z,100051.22
2022-07-29T22:40:32.782Z,100050.53
2022-07-29T22:43:02.217Z,100039.84
2022-07-29T22:45:30.426Z,100049.38
2022-07-29T22:47:59.443Z,100039.03
2022-07-29T22:50:27.539Z,100037.97
2022-07-29T22:52:55.775Z,100036.34
2022-07-29T22:55:23.659Z,100043.97
2022-07-29T22:57:51.683Z,100041.31
2022-07-29T23:00:19.943Z,100035.12
2022-07-29T23:02:47.930Z,100033.00
2022-07-29T23:05:16.097Z,100038.22
2022-07-29T23:07:44.582Z,100026.63
2022-07-29T23:10:12.477Z,100020.44
2022-07-29T23:12:40.360Z,100013.97
2022-07-29T23:15:08.720Z,100017.84
2022-07-29T23:17:37.096Z,100005.22
2022-07-29T23:20:07.723Z,99997.94
2022-07-29T23:22:36.512Z,100013.63
2022-07-29T23:25:06.367Z,100006.87
2022-07-29T23:27:34.409Z,100005.56
2022-07-29T23:30:03.802Z,100000.66
2022-07-29T23:32:31.846Z,99997.25
2022-07-29T23:34:59.831Z,99997.03
2022-07-29T23:37:28.110Z,99993.22
2022-07-29T23:39:56.454Z,99987.81
2022-07-29T23:42:24.322Z,99988.09
2022-07-29T23:44:52.712Z,99991.38
2022-07-29T23:47:20.643Z,99981.41
2022-07-29T23:49:50.101Z,99986.34
2022-07-29T23:52:18.600Z,99976.91
2022-07-29T23:54:46.679Z,99973.94
2022-07-29T23:57:14.665Z,99978.59
2022-07-29T23:59:42.930Z,99971.34
